Time;durP1;ratioP1;P1;durP2;ratioP2;P2;SDS_P1;SDS_P2;PMS_P1;PMS_P2;Temp;Humidity;BMP_temperature;BMP_pressure;BME280_temperature;BME280_humidity;BME280_pressure;Samples;Min_cycle;Max_cycle;Signal;HPM_P1;HPM_P2
2022/07/31 00:01:12;;;;;;;2.40;2.20;;;;;;;19.53;58.73;99128.25;5074871;28;39115;-73
2022/07/31 00:03:40;;;;;;;3.23;2.93;;;;;;;19.47;59.34;99122.56;5091967;28;41692;-74
2022/07/31 00:06:08;;;;;;;3.20;2.93;;;;;;;19.38;59.26;99119.75;5092766;28;42482;-74
2022/07/31 00:08:37;;;;;;;3.63;2.87;;;;;;;19.33;59.29;99113.13;5074600;28;41197;-73
2022/07/31 00:11:05;;;;;;;2.80;2.60;;;;;;;19.28;59.55;99110.88;5089699;28;39801;-75
2022/07/31 00:13:33;;;;;;;2.73;2.53;;;;;;;19.25;59.60;99110.31;5091582;28;41684;-74
2022/07/31 00:16:00;;;;;;;3.40;3.10;;;;;;;19.20;59.56;99108.06;5091618;28;42949;-73
2022/07/31 00:18:28;;;;;;;3.87;2.57;;;;;;;19.14;59.34;99107.78;5090477;28;42243;-73
2022/07/31 00:20:56;;;;;;;3.10;2.80;;;;;;;19.09;59.46;99105.53;5091617;28;39613;-76
2022/07/31 00:23:24;;;;;;;3.53;3.23;;;;;;;19.02;60.06;99105.28;5091724;28;41787;-75
2022/07/31 00:25:53;;;;;;;3.33;3.03;;;;;;;18.97;59.66;99107.53;5092743;28;43774;-74
2022/07/31 00:28:21;;;;;;;2.80;2.60;;;;;;;18.92;60.08;99099.03;5092567;28;42582;-73
2022/07/31 00:30:49;;;;;;;3.33;3.03;;;;;;;18.87;60.25;99101.31;5091786;28;40037;-76
2022/07/31 00:33:17;;;;;;;3.33;3.03;;;;;;;18.82;60.00;99108.94;5091276;28;40819;-75
2022/07/31 00:35:44;;;;;;;3.13;2.83;;;;;;;18.76;60.50;99098.78;5074218;28;41979;-75
2022/07/31 00:38:12;;;;;;;2.87;2.53;;;;;;;18.71;60.57;99103.72;5091117;28;43202;-73
2022/07/31 00:40:46;;;;;;;2.80;2.60;;;;;;;18.67;60.53;99105.81;5091441;28;41914;-77
2022/07/31 00:43:17;;;;;;;3.13;2.63;;;;;;;18.64;60.60;99102.59;5090808;28;42177;-77
2022/07/31 00:45:45;;;;;;;3.00;2.80;;;;;;;18.59;60.51;99104.84;5090601;28;43224;-76
2022/07/31 00:48:13;;;;;;;3.30;2.90;;;;;;;18.55;60.76;99106.06;5090869;28;42951;-73
2022/07/31 00:50:41;;;;;;;7.53;3.43;;;;;;;18.51;60.82;99105.53;5091155;28;40028;-73
2022/07/31 00:53:08;;;;;;;3.40;3.10;;;;;;;18.47;61.01;99106.78;5074063;28;41932;-76
2022/07/31 00:55:37;;;;;;;2.70;2.50;;;;;;;18.45;61.33;99099.84;5091120;28;42737;-72
2022/07/31 00:58:04;;;;;;;3.40;3.10;;;;;;;18.41;61.15;99101.16;5090849;28;42453;-76
2022/07/31 01:00:34;;;;;;;3.40;3.10;;;;;;;18.38;61.24;99098.72;5091125;28;40641;-73
2022/07/31 01:03:01;;;;;;;2.70;2.50;;;;;;;18.36;61.23;99106.06;5090651;28;41748;-73
2022/07/31 01:05:29;;;;;;;3.27;2.67;;;;;;;18.33;61.11;99106.34;5073736;28;43037;-75
2022/07/31 01:07:57;;;;;;;2.67;2.47;;;;;;;18.30;61.11;99105.63;5090753;28;43346;-73
2022/07/31 01:10:38;;;;;;;3.33;2.80;;;;;;;18.28;61.30;99110.28;5090529;28;39752;-77
2022/07/31 01:13:13;;;;;;;3.10;2.90;;;;;;;18.24;61.75;99100.81;5090660;28;41917;-74
2022/07/31 01:15:44;;;;;;;3.23;3.00;;;;;;;18.23;62.03;99101.81;5087907;28;42305;-72
2022/07/31 01:18:13;;;;;;;3.27;3.00;;;;;;;18.20;62.91;99091.34;5089900;28;41514;-77
2022/07/31 01:20:43;;;;;;;4.30;3.90;;;;;;;18.21;64.53;99086.84;5073634;28;39253;-73
2022/07/31 01:23:31;;;;;;;4.07;3.67;;;;;;;18.20;64.91;99088.66;5090566;28;41474;-75
2022/07/31 01:26:41;;;;;;;4.83;3.90;;;;;;;18.21;64.38;99102.94;5067570;28;42265;-73
2022/07/31 01:29:24;;;;;;;3.70;3.40;;;;;;;18.19;63.82;99108.41;5086832;28;42101;-73
2022/07/31 01:31:57;;;;;;;4.53;4.13;;;;;;;18.14;63.54;99107.16;5073463;28;42373;-76
2022/07/31 01:34:31;;;;;;;3.90;3.50;;;;;;;18.13;63.36;99102.78;5087660;28;41731;-74
2022/07/31 01:37:09;;;;;;;3.83;3.53;;;;;;;18.09;63.34;99099.50;5073344;28;43046;-73
2022/07/31 01:39:39;;;;;;;3.03;2.83;;;;;;;18.05;63.22;99108.81;5073835;28;43465;-74
2022/07/31 01:42:09;;;;;;;2.97;2.77;;;;;;;18.01;63.20;99104.72;5090928;28;39679;-77
2022/07/31 01:44:44;;;;;;;3.40;3.10;;;;;;;17.99;63.37;99111.19;5090483;28;41519;-74
2022/07/31 01:47:19;;;;;;;3.00;2.80;;;;;;;17.94;63.24;99104.41;5088900;28;42711;-73
2022/07/31 01:49:48;;;;;;;3.50;3.20;;;;;;;17.91;63.22;99111.88;5073714;28;42020;-76
2022/07/31 01:52:19;;;;;;;2.90;2.27;;;;;;;17.88;63.32;99114.84;5073025;28;41503;-73
2022/07/31 01:54:47;;;;;;;3.30;3.00;;;;;;;17.83;63.56;99106.34;5073151;28;42597;-74
2022/07/31 01:57:17;;;;;;;2.73;2.53;;;;;;;17.79;63.34;99102.25;5090683;28;43986;-76
2022/07/31 01:59:50;;;;;;;3.03;2.77;;;;;;;17.75;63.74;99106.19;5087019;28;42031;-78
2022/07/31 02:02:22;;;;;;;3.03;2.83;;;;;;;17.73;63.57;99097.44;5073180;28;41873;-73
2022/07/31 02:04:51;;;;;;;3.03;2.83;;;;;;;17.69;63.51;99112.06;5073047;28;40645;-73
2022/07/31 02:07:20;;;;;;;3.20;2.93;;;;;;;17.66;63.44;99101.63;5090420;28;42821;-76
2022/07/31 02:09:50;;;;;;;3.10;2.80;;;;;;;17.62;63.31;99106.38;5089500;28;42884;-76
2022/07/31 02:12:19;;;;;;;2.47;2.20;;;;;;;17.62;63.51;99105.53;5072891;28;39950;-73
2022/07/31 02:14:50;;;;;;;2.97;2.77;;;;;;;17.56;63.16;99097.03;5072878;28;40738;-73
2022/07/31 02:17:19;;;;;;;3.07;2.77;;;;;;;17.56;63.32;99097.03;5088600;28;42801;-76
2022/07/31 02:20:09;;;;;;;3.40;3.10;;;;;;;17.51;63.72;99099.28;5087855;28;42027;-77
2022/07/31 02:22:37;;;;;;;2.80;2.60;;;;;;;17.49;63.50;99090.53;5088858;28;40757;-75
2022/07/31 02:25:07;;;;;;;2.90;2.70;;;;;;;17.45;63.45;99089.09;5089684;28;42700;-73
2022/07/31 02:27:39;;;;;;;2.90;2.70;;;;;;;17.44;63.70;99086.53;5072196;28;42056;-73
2022/07/31 02:30:11;;;;;;;3.03;2.83;;;;;;;17.41;63.86;99085.00;5086964;28;43073;-74
2022/07/31 02:32:41;;;;;;;3.37;3.07;;;;;;;17.41;63.58;99087.69;5089052;28;39790;-73
2022/07/31 02:35:09;;;;;;;3.37;3.07;;;;;;;17.41;64.27;99087.69;5072774;28;40797;-74
2022/07/31 02:37:39;;;;;;;3.47;3.17;;;;;;;17.44;63.88;99091.91;5072458;28;43183;-71
2022/07/31 02:40:09;;;;;;;3.00;2.70;;;;;;;17.46;64.16;99082.75;5089724;28;42993;-72
2022/07/31 02:42:37;;;;;;;3.03;2.83;;;;;;;17.47;64.13;99081.78;5075032;28;40934;-72
2022/07/31 02:45:10;;;;;;;3.03;2.83;;;;;;;17.50;63.91;99086.88;5075841;28;42347;-73
2022/07/31 02:47:39;;;;;;;3.53;3.23;;;;;;;17.49;63.89;99089.69;5075803;28;42854;-74
2022/07/31 02:50:13;;;;;;;3.30;3.10;;;;;;;17.50;63.83;99089.53;5090187;28;42959;-75
2022/07/31 02:52:41;;;;;;;3.07;2.87;;;;;;;17.49;63.87;99079.81;5075797;28;38922;-76
2022/07/31 02:55:10;;;;;;;3.40;3.10;;;;;;;17.48;63.84;99087.97;5076131;28;40998;-74
2022/07/31 02:57:38;;;;;;;3.37;3.07;;;;;;;17.48;63.78;99074.59;5092737;28;43666;-76
2022/07/31 03:00:22;;;;;;;3.10;2.83;;;;;;;17.46;64.10;99072.03;5091167;28;42348;-74
2022/07/31 03:02:53;;;;;;;3.10;2.83;;;;;;;17.44;63.99;99068.66;5092522;28;41011;-76
2022/07/31 03:05:21;;;;;;;3.50;3.20;;;;;;;17.45;63.62;99070.34;5092653;28;42502;-74
2022/07/31 03:07:49;;;;;;;2.97;2.77;;;;;;;17.48;64.07;99063.88;5092975;28;42765;-74
2022/07/31 03:10:17;;;;;;;3.07;2.87;;;;;;;17.50;63.81;99068.13;5075242;28;44143;-74
2022/07/31 03:13:06;;;;;;;3.40;3.20;;;;;;;17.50;63.70;99069.94;5092194;28;40982;-73
2022/07/31 03:15:38;;;;;;;3.07;2.67;;;;;;;17.45;63.90;99065.00;5092501;28;42391;-77
2022/07/31 03:18:10;;;;;;;3.10;2.90;;;;;;;17.42;64.01;99073.31;5091952;28;42727;-75
2022/07/31 03:20:41;;;;;;;2.50;2.30;;;;;;;17.39;64.18;99056.66;5089551;28;43216;-73
2022/07/31 03:23:12;;;;;;;2.83;2.63;;;;;;;17.37;64.09;99062.16;5075370;28;38802;-73
2022/07/31 03:25:52;;;;;;;2.90;2.70;;;;;;;17.38;64.43;99066.53;5089489;28;41742;-73
2022/07/31 03:28:22;;;;;;;3.40;3.10;;;;;;;17.39;64.32;99073.56;5075427;28;41768;-73
2022/07/31 03:30:54;;;;;;;3.50;3.20;;;;;;;17.44;64.36;99067.78;5092394;28;42252;-73
2022/07/31 03:33:22;;;;;;;4.33;3.03;;;;;;;17.48;64.62;99067.41;5075598;28;40081;-74
2022/07/31 03:35:50;;;;;;;4.10;3.80;;;;;;;17.53;64.37;99072.38;5091976;28;41541;-77
2022/07/31 03:38:18;;;;;;;3.23;2.93;;;;;;;17.57;64.65;99071.94;5075155;28;43239;-76
2022/07/31 03:40:50;;;;;;;4.77;3.23;;;;;;;17.62;64.56;99073.38;5089446;28;43316;-73
2022/07/31 03:43:19;;;;;;;3.33;3.03;;;;;;;17.63;64.45;99065.25;5093286;28;39811;-75
2022/07/31 03:45:48;;;;;;;4.37;3.40;;;;;;;17.64;64.43;99066.09;5092033;28;42715;-74
2022/07/31 03:48:18;;;;;;;3.50;3.20;;;;;;;17.67;64.93;99071.19;5075085;28;41419;-74
2022/07/31 03:50:46;;;;;;;4.67;3.57;;;;;;;17.69;64.99;99070.06;5091891;28;43060;-74
2022/07/31 03:53:14;;;;;;;3.83;3.47;;;;;;;17.71;65.04;99065.41;5091415;28;39821;-74
2022/07/31 03:55:45;;;;;;;2.70;2.50;;;;;;;17.74;64.76;99072.34;5075237;28;43202;-76
2022/07/31 03:58:13;;;;;;;3.60;3.30;;;;;;;17.78;64.81;99079.97;5091756;28;43722;-74
2022/07/31 04:00:41;;;;;;;3.53;3.30;;;;;;;17.82;65.07;99076.03;5091698;28;43241;-73
2022/07/31 04:03:11;;;;;;;3.47;3.10;;;;;;;17.87;65.08;99086.34;5091616;28;40864;-74
2022/07/31 04:05:55;;;;;;;3.60;3.30;;;;;;;17.90;64.74;99086.94;5074716;28;41818;-75
2022/07/31 04:08:24;;;;;;;3.30;3.00;;;;;;;17.94;64.84;99079.44;5074351;28;41741;-74
2022/07/31 04:10:52;;;;;;;3.63;3.33;;;;;;;17.99;65.05;99081.72;5088702;28;42974;-74
2022/07/31 04:13:24;;;;;;;4.00;3.30;;;;;;;18.03;65.23;99080.47;5091759;28;40724;-74
2022/07/31 04:15:52;;;;;;;3.27;3.07;;;;;;;18.05;65.06;99086.53;5074196;28;41911;-74
2022/07/31 04:18:21;;;;;;;4.20;3.00;;;;;;;18.07;65.26;99082.72;5091251;28;43752;-72
2022/07/31 04:20:50;;;;;;;4.23;3.87;;;;;;;18.10;65.94;99074.41;5091603;28;43097;-73
2022/07/31 04:23:19;;;;;;;3.20;2.90;;;;;;;18.15;65.44;99066.81;5091312;28;39575;-74
2022/07/31 04:26:06;;;;;;;4.00;3.60;;;;;;;18.21;65.50;99070.75;5089068;28;43056;-72
2022/07/31 04:28:39;;;;;;;3.93;3.53;;;;;;;18.26;65.77;99082.78;5074542;28;44162;-75
2022/07/31 04:31:08;;;;;;;4.40;3.67;;;;;;;18.31;65.82;99077.81;5091251;28;42392;-74
2022/07/31 04:33:39;;;;;;;4.40;4.00;;;;;;;18.36;66.18;99074.72;5074707;28;40764;-72
2022/07/31 04:36:06;;;;;;;4.20;3.80;;;;;;;18.41;65.96;99077.00;5074288;28;40910;-75
2022/07/31 04:38:36;;;;;;;3.87;3.30;;;;;;;18.46;66.07;99074.72;5074467;28;42896;-75
2022/07/31 04:41:03;;;;;;;3.73;3.43;;;;;;;18.49;65.92;99078.00;5091125;28;42328;-75
2022/07/31 04:43:31;;;;;;;4.73;4.20;;;;;;;18.57;67.08;99077.28;5091421;28;39963;-74
2022/07/31 04:45:59;;;;;;;3.90;3.60;;;;;;;18.64;66.63;99083.81;5092460;28;41529;-74
2022/07/31 04:48:27;;;;;;;4.23;3.83;;;;;;;18.69;66.02;99083.38;5091237;28;43858;-75
2022/07/31 04:50:54;;;;;;;4.57;4.17;;;;;;;18.75;65.97;99083.69;5073634;28;42250;-73
2022/07/31 04:53:22;;;;;;;3.90;3.60;;;;;;;18.82;65.60;99092.84;5091143;28;40829;-73
2022/07/31 04:58:33;;;;;;;3.93;3.63;;;;;;;18.97;65.48;99096.78;5087159;28;42921;-72
2022/07/31 05:01:01;;;;;;;4.07;3.77;;;;;;;19.09;65.40;99105.53;5073863;28;41135;-74
2022/07/31 05:03:31;;;;;;;4.87;4.23;;;;;;;19.17;65.38;99107.50;5073977;28;39927;-75
2022/07/31 05:06:09;;;;;;;4.53;4.03;;;;;;;19.25;65.46;99094.22;5090411;28;41948;-74
2022/07/31 05:08:37;;;;;;;4.60;4.10;;;;;;;19.23;65.00;99078.25;5073536;28;42914;-72
2022/07/31 05:11:22;;;;;;;4.67;3.70;;;;;;;19.44;64.57;99099.50;5087388;28;43035;-76
2022/07/31 05:13:51;;;;;;;4.40;4.00;;;;;;;19.56;64.77;99095.69;5073726;28;38654;-76
2022/07/31 05:16:20;;;;;;;4.27;3.87;;;;;;;19.68;64.43;99093.66;5091564;28;41647;-76
2022/07/31 05:18:48;;;;;;;4.50;4.10;;;;;;;19.81;64.36;99098.69;5090725;28;42883;-74
2022/07/31 05:21:52;;;;;;;4.50;4.10;;;;;;;19.94;63.71;99100.06;5032234;28;42431;-76
2022/07/31 05:24:39;;;;;;;4.03;3.70;;;;;;;20.08;63.58;99096.88;5086090;28;38992;-76
2022/07/31 05:27:10;;;;;;;4.27;3.87;;;;;;;20.21;63.54;99104.59;5072777;28;41410;-77
2022/07/31 05:29:38;;;;;;;4.30;4.00;;;;;;;20.35;63.45;99100.53;5090089;28;43739;-77
2022/07/31 05:32:07;;;;;;;4.30;3.83;;;;;;;20.47;62.59;99106.56;5073240;28;42232;-76
2022/07/31 05:34:36;;;;;;;4.50;3.67;;;;;;;20.60;63.04;99109.75;5073597;28;41359;-74
2022/07/31 05:37:05;;;;;;;4.57;4.20;;;;;;;20.72;62.26;99111.19;5073077;28;42763;-73
2022/07/31 05:39:35;;;;;;;4.80;3.93;;;;;;;20.87;62.21;99104.28;5087605;28;42727;-74
2022/07/31 05:42:23;;;;;;;6.40;5.00;;;;;;;21.01;61.18;99109.13;5089761;28;41314;-74
2022/07/31 05:45:23;;;;;;;4.43;4.00;;;;;;;21.12;60.76;99116.94;5068302;28;40864;-74
2022/07/31 05:47:50;;;;;;;5.07;4.57;;;;;;;21.26;60.60;99120.13;5073037;28;40712;-75
2022/07/31 05:50:19;;;;;;;4.10;3.80;;;;;;;21.35;60.37;99124.56;5089964;28;41661;-75
2022/07/31 05:52:48;;;;;;;4.03;3.70;;;;;;;21.40;60.36;99119.50;5090150;28;42236;-76
2022/07/31 05:55:31;;;;;;;3.83;3.40;;;;;;;21.33;59.88;99097.75;5090190;28;40847;-75
2022/07/31 05:58:19;;;;;;;3.70;3.40;;;;;;;21.42;60.05;99122.91;5089825;28;40588;-75
2022/07/31 06:00:49;;;;;;;3.23;3.03;;;;;;;21.49;59.72;99123.97;5073137;28;42526;-74
2022/07/31 06:03:23;;;;;;;4.90;4.07;;;;;;;21.61;59.74;99117.31;5072824;28;41319;-76
2022/07/31 06:06:06;;;;;;;3.63;3.33;;;;;;;21.79;59.46;99126.16;5073008;28;38849;-77
2022/07/31 06:08:35;;;;;;;4.30;3.90;;;;;;;22.00;58.99;99116.88;5090460;28;42801;-72
2022/07/31 06:11:03;;;;;;;4.70;3.80;;;;;;;22.19;57.89;99127.41;5086808;28;43244;-74
2022/07/31 06:13:32;;;;;;;3.90;3.60;;;;;;;22.42;57.62;99127.63;5089942;28;43024;-75
2022/07/31 06:16:13;;;;;;;3.73;3.43;;;;;;;22.55;57.07;99128.84;5074896;28;38767;-77
2022/07/31 06:18:42;;;;;;;4.97;3.30;;;;;;;22.66;56.74;99125.00;5076549;28;40308;-72
2022/07/31 06:21:11;;;;;;;4.60;4.17;;;;;;;22.60;56.06;99093.28;5093049;28;43622;-76
2022/07/31 06:23:39;;;;;;;3.80;3.50;;;;;;;22.95;55.97;99124.56;5093592;28;42174;-76
2022/07/31 06:26:17;;;;;;;4.93;4.53;;;;;;;23.18;54.91;99125.56;5090827;28;40136;-75
2022/07/31 06:28:46;;;;;;;4.30;3.90;;;;;;;23.43;54.21;99130.94;5093337;28;41929;-74
2022/07/31 06:31:18;;;;;;;4.53;4.23;;;;;;;23.66;53.24;99129.25;5093088;28;42816;-75
2022/07/31 06:33:46;;;;;;;4.00;3.70;;;;;;;23.83;52.57;99130.91;5075832;28;40990;-73
2022/07/31 06:36:14;;;;;;;4.73;3.40;;;;;;;24.05;52.05;99136.59;5093102;28;41139;-72
2022/07/31 06:38:48;;;;;;;3.30;2.93;;;;;;;24.16;51.96;99144.31;5076068;28;40915;-74
2022/07/31 06:41:46;;;;;;;3.37;3.17;;;;;;;24.20;51.94;99137.53;5068035;28;42630;-76
2022/07/31 06:44:32;;;;;;;3.67;3.37;;;;;;;24.42;51.76;99138.66;5091162;28;43041;-72
2022/07/31 06:47:20;;;;;;;3.30;3.00;;;;;;;24.75;51.14;99136.59;5093971;28;39806;-75
2022/07/31 06:49:51;;;;;;;3.37;3.07;;;;;;;25.19;49.89;99147.66;5092818;28;43418;-76
2022/07/31 06:52:19;;;;;;;3.37;3.13;;;;;;;25.54;49.09;99138.84;5092517;28;42769;-74
2022/07/31 06:54:46;;;;;;;3.20;2.97;;;;;;;25.93;48.49;99152.22;5075621;28;42981;-74
2022/07/31 06:57:14;;;;;;;2.90;2.70;;;;;;;26.37;47.08;99160.34;5092836;28;40791;-76
2022/07/31 06:59:44;;;;;;;3.13;2.80;;;;;;;26.68;46.39;99165.56;5092566;28;42532;-73
2022/07/31 07:02:13;;;;;;;2.97;2.77;;;;;;;26.96;45.88;99156.66;5091668;28;45129;-75
2022/07/31 07:04:40;;;;;;;4.60;3.57;;;;;;;27.16;44.36;99155.00;5092772;28;42040;-73
2022/07/31 07:07:08;;;;;;;3.40;3.10;;;;;;;27.44;43.69;99165.94;5092405;28;40909;-76
2022/07/31 07:09:35;;;;;;;2.80;2.60;;;;;;;27.71;44.14;99156.97;5092512;28;41782;-77
2022/07/31 07:12:04;;;;;;;2.60;2.40;;;;;;;28.01;43.41;99162.19;5092399;28;42737;-76
2022/07/31 07:14:32;;;;;;;2.50;2.30;;;;;;;28.28;42.50;99174.13;5092684;28;43230;-74
2022/07/31 07:17:05;;;;;;;2.37;2.23;;;;;;;28.55;42.37;99170.47;5092550;28;40143;-75
2022/07/31 07:19:32;;;;;;;2.60;2.40;;;;;;;28.76;41.67;99167.63;5089679;28;41939;-73
2022/07/31 07:22:00;;;;;;;3.20;3.00;;;;;;;28.90;40.89;99174.81;5092096;28;42570;-76
2022/07/31 07:24:28;;;;;;;3.20;2.80;;;;;;;28.92;39.72;99175.47;5092235;28;43283;-75
2022/07/31 07:27:09;;;;;;;4.53;2.60;;;;;;;29.00;39.20;99176.31;5074828;28;40090;-76
2022/07/31 07:29:37;;;;;;;2.50;2.30;;;;;;;28.99;39.83;99169.16;5092633;28;42412;-74
2022/07/31 07:32:07;;;;;;;2.70;2.50;;;;;;;29.01;39.66;99167.06;5092013;28;43538;-75
2022/07/31 07:34:34;;;;;;;2.83;2.50;;;;;;;29.09;39.86;99172.31;5075482;28;42050;-77
2022/07/31 07:37:02;;;;;;;2.73;2.53;;;;;;;29.28;39.39;99166.91;5092078;28;39820;-77
2022/07/31 07:39:32;;;;;;;2.80;2.43;;;;;;;29.73;38.43;99178.06;5092658;28;41975;-76
2022/07/31 07:42:00;;;;;;;2.60;2.40;;;;;;;30.09;37.66;99177.63;5074866;28;45254;-74
2022/07/31 07:44:28;;;;;;;2.80;2.50;;;;;;;30.65;36.96;99185.28;5075262;28;42714;-75
2022/07/31 07:46:55;;;;;;;2.60;2.40;;;;;;;31.04;36.32;99195.16;5092416;28;39942;-78
2022/07/31 07:49:25;;;;;;;2.80;2.60;;;;;;;31.26;35.79;99179.28;5091802;28;42512;-75
2022/07/31 07:52:11;;;;;;;2.40;2.20;;;;;;;31.62;35.19;99193.09;5091498;28;43708;-74
2022/07/31 07:54:39;;;;;;;2.90;2.63;;;;;;;31.73;34.66;99180.59;5093200;28;42384;-76
2022/07/31 07:57:22;;;;;;;2.90;2.70;;;;;;;31.89;34.29;99190.16;5091935;28;39953;-78
2022/07/31 08:00:22;;;;;;;2.83;2.53;;;;;;;32.21;33.29;99194.50;5069287;28;43230;-75
2022/07/31 08:02:59;;;;;;;2.40;2.00;;;;;;;32.18;33.94;99183.97;5091270;28;43767;-79
2022/07/31 08:05:28;;;;;;;2.40;2.20;;;;;;;32.07;33.58;99180.06;5093006;28;43219;-74
2022/07/31 08:07:56;;;;;;;2.60;2.40;;;;;;;31.92;32.86;99178.72;5091765;28;39924;-77
2022/07/31 08:10:42;;;;;;;2.20;2.00;;;;;;;31.88;33.21;99180.28;5074752;28;43647;-73
2022/07/31 08:13:19;;;;;;;3.17;2.30;;;;;;;31.85;33.06;99187.03;5074199;28;43476;-74
2022/07/31 08:16:06;;;;;;;2.40;2.20;;;;;;;31.85;33.53;99176.06;5092492;28;43320;-77
2022/07/31 08:18:41;;;;;;;3.50;2.67;;;;;;;31.90;33.81;99172.66;5088646;28;41003;-77
2022/07/31 08:21:10;;;;;;;3.10;2.80;;;;;;;31.89;33.51;99168.25;5074364;28;42008;-73
2022/07/31 08:23:38;;;;;;;2.70;2.50;;;;;;;31.86;33.67;99177.75;5091526;28;43766;-76
2022/07/31 08:26:08;;;;;;;2.50;2.30;;;;;;;31.80;33.97;99169.56;5091476;28;42882;-75
2022/07/31 08:28:36;;;;;;;2.63;2.33;;;;;;;31.78;33.95;99165.16;5074459;28;40446;-75
2022/07/31 08:31:04;;;;;;;3.00;2.80;;;;;;;31.76;34.16;99167.31;5090495;28;42676;-74
2022/07/31 08:33:36;;;;;;;2.60;2.40;;;;;;;31.70;33.95;99162.72;5091482;28;42055;-73
2022/07/31 08:36:07;;;;;;;3.30;3.00;;;;;;;31.63;34.21;99164.66;5091131;28;43284;-74
2022/07/31 08:38:37;;;;;;;2.60;2.40;;;;;;;31.56;34.10;99163.88;5088032;28;39935;-75
2022/07/31 08:41:27;;;;;;;2.90;2.70;;;;;;;31.46;33.42;99169.00;5085687;28;42599;-77
2022/07/31 08:43:56;;;;;;;2.50;2.30;;;;;;;31.46;33.58;99165.44;5090864;28;44056;-76
2022/07/31 08:46:25;;;;;;;2.60;2.40;;;;;;;31.60;33.77;99167.00;5073866;28;41584;-77
2022/07/31 08:48:57;;;;;;;3.40;3.00;;;;;;;31.80;33.20;99166.84;5073966;28;42061;-74
2022/07/31 08:51:25;;;;;;;3.07;2.77;;;;;;;32.12;32.81;99160.22;5073937;28;42036;-78
2022/07/31 08:54:25;;;;;;;3.17;2.97;;;;;;;32.65;31.67;99170.56;5053455;28;43718;-77
2022/07/31 08:56:53;;;;;;;3.60;2.90;;;;;;;32.86;30.27;99172.84;5073873;28;43271;-78
2022/07/31 08:59:21;;;;;;;2.50;2.30;;;;;;;33.06;30.08;99178.91;5073726;28;41267;-76
2022/07/31 09:01:51;;;;;;;3.23;2.93;;;;;;;33.34;29.61;99161.00;5073538;28;42662;-76
2022/07/31 09:04:19;;;;;;;3.47;2.70;;;;;;;33.68;29.53;99171.19;5073824;28;41729;-76
2022/07/31 09:06:47;;;;;;;3.20;2.90;;;;;;;33.92;29.17;99162.97;5073406;28;42645;-73
2022/07/31 09:09:17;;;;;;;3.97;2.80;;;;;;;34.18;28.67;99176.22;5090178;28;40441;-73
2022/07/31 09:11:52;;;;;;;4.03;2.57;;;;;;;34.32;28.13;99174.94;5090303;28;42857;-77
2022/07/31 09:14:49;;;;;;;2.37;2.17;;;;;;;34.73;27.64;99179.38;5087389;28;42501;-75
2022/07/31 09:17:16;;;;;;;2.80;2.60;;;;;;;35.35;26.94;99186.94;5088281;28;43205;-79
2022/07/31 09:19:46;;;;;;;2.83;2.20;;;;;;;35.82;26.63;99182.81;5091634;28;39944;-72
2022/07/31 09:22:25;;;;;;;3.03;2.40;;;;;;;36.16;25.77;99182.75;5089116;28;42240;-74
2022/07/31 09:25:07;;;;;;;3.20;2.63;;;;;;;36.25;25.22;99197.81;5073274;28;43185;-77
2022/07/31 09:27:36;;;;;;;2.70;2.50;;;;;;;36.22;25.54;99181.78;5073274;28;41373;-77
2022/07/31 09:30:07;;;;;;;3.30;2.60;;;;;;;36.57;25.41;99179.50;5090540;28;40035;-73
2022/07/31 09:32:52;;;;;;;2.80;2.47;;;;;;;37.58;24.47;99184.50;5089507;28;41729;-76
2022/07/31 09:35:28;;;;;;;2.60;2.27;;;;;;;37.76;24.12;99186.88;5090301;28;43090;-73
2022/07/31 09:37:56;;;;;;;2.70;2.50;;;;;;;37.96;23.85;99187.00;5089950;28;42109;-74
2022/07/31 09:40:56;;;;;;;2.97;1.95;;;;;;;38.52;23.46;99187.38;5056857;28;39870;-75
2022/07/31 09:43:58;;;;;;;2.20;2.00;;;;;;;38.71;22.71;99191.34;5085299;28;42371;-73
2022/07/31 09:46:27;;;;;;;2.25;2.05;;;;;;;39.24;21.89;99202.34;5072691;28;44064;-74
2022/07/31 09:48:56;;;;;;;3.33;2.45;;;;;;;39.13;22.30;99193.19;5073108;28;43662;-77
2022/07/31 09:51:24;;;;;;;2.08;1.83;;;;;;;39.07;22.32;99180.44;5092064;28;40016;-73
2022/07/31 09:53:54;;;;;;;1.58;1.48;;;;;;;39.22;22.20;99188.75;5093707;28;41753;-72
2022/07/31 09:56:51;;;;;;;3.78;1.90;;;;;;;39.35;21.83;99177.13;5040316;28;42840;-77
2022/07/31 09:59:20;;;;;;;1.75;1.65;;;;;;;39.76;21.33;99193.81;5090471;28;43286;-74
2022/07/31 10:01:48;;;;;;;1.90;1.80;;;;;;;39.74;20.94;99190.50;5093688;28;41764;-75
2022/07/31 10:04:17;;;;;;;2.47;2.00;;;;;;;39.26;21.30;99173.25;5093385;28;42201;-77
2022/07/31 10:06:48;;;;;;;2.00;1.90;;;;;;;38.83;21.56;99170.91;5093309;28;42676;-76
2022/07/31 10:09:19;;;;;;;1.70;1.60;;;;;;;38.58;21.67;99169.69;5093180;28;44039;-73
2022/07/31 10:12:13;;;;;;;2.47;1.92;;;;;;;38.51;22.23;99157.19;5074182;28;39958;-75
2022/07/31 10:14:44;;;;;;;2.90;2.10;;;;;;;38.48;21.48;99155.78;5093491;28;41409;-75
2022/07/31 10:17:17;;;;;;;1.80;1.70;;;;;;;38.54;21.69;99154.75;5075486;28;44120;-76
2022/07/31 10:20:03;;;;;;;2.00;1.80;;;;;;;39.67;19.91;99167.75;5076647;28;40918;-74
2022/07/31 10:22:56;;;;;;;1.60;1.50;;;;;;;41.16;18.89;99176.25;5093347;28;40073;-76
2022/07/31 10:25:29;;;;;;;1.98;1.80;;;;;;;42.47;17.94;99165.06;5092939;28;41702;-75
2022/07/31 10:27:58;;;;;;;1.52;1.42;;;;;;;42.90;17.23;99163.97;5092953;28;43698;-75
2022/07/31 10:30:29;;;;;;;2.08;1.88;;;;;;;42.10;18.32;99152.66;5093097;28;42470;-77
2022/07/31 10:32:59;;;;;;;2.72;1.67;;;;;;;41.54;18.25;99150.41;5076395;28;39008;-73
2022/07/31 10:35:28;;;;;;;2.17;1.70;;;;;;;41.32;17.96;99155.53;5094194;28;42667;-73
2022/07/31 10:38:21;;;;;;;1.95;1.58;;;;;;;40.98;18.35;99143.53;5052329;28;42700;-76
2022/07/31 10:41:08;;;;;;;1.83;1.55;;;;;;;41.37;17.83;99147.16;5089938;28;42136;-75
2022/07/31 10:43:42;;;;;;;2.33;1.67;;;;;;;41.44;18.06;99142.09;5075977;28;40686;-75
2022/07/31 10:46:33;;;;;;;1.80;1.70;;;;;;;41.57;18.30;99141.47;5061462;28;44068;-75
2022/07/31 10:49:20;;;;;;;1.65;1.55;;;;;;;41.83;17.73;99138.44;5092561;28;42965;-74
2022/07/31 10:52:27;;;;;;;1.88;1.75;;;;;;;42.19;17.49;99130.56;5091547;28;41003;-77
2022/07/31 10:55:15;;;;;;;2.67;1.75;;;;;;;41.54;17.73;99132.84;5075667;28;40073;-77
2022/07/31 10:58:09;;;;;;;2.17;1.50;;;;;;;40.71;18.02;99124.50;5092508;28;41024;-74
2022/07/31 11:00:52;;;;;;;1.92;1.60;;;;;;;40.35;18.86;99118.28;5092589;28;43499;-76
2022/07/31 11:03:48;;;;;;;1.58;1.48;;;;;;;40.37;18.61;99116.88;5071939;28;43068;-74
2022/07/31 11:06:39;;;;;;;1.85;1.45;;;;;;;39.89;19.06;99109.25;5092581;28;40657;-78
2022/07/31 11:09:37;;;;;;;1.90;1.63;;;;;;;39.21;19.59;99103.97;5091081;28;42758;-73
2022/07/31 11:12:18;;;;;;;1.50;1.40;;;;;;;38.78;20.30;99097.78;5090892;28;42698;-75
2022/07/31 11:15:02;;;;;;;1.53;1.43;;;;;;;38.31;20.44;99097.06;5075057;28;42161;-76
2022/07/31 11:17:42;;;;;;;1.63;1.43;;;;;;;37.81;21.01;99090.16;5091842;28;40832;-77
2022/07/31 11:20:30;;;;;;;1.43;1.33;;;;;;;37.48;21.21;99091.25;5091984;28;42410;-74
2022/07/31 11:23:00;;;;;;;1.50;1.40;;;;;;;37.39;21.25;99084.56;5092233;28;41681;-74
2022/07/31 11:25:30;;;;;;;1.40;1.30;;;;;;;37.27;21.41;99089.44;5092183;28;44152;-76
2022/07/31 11:27:58;;;;;;;1.57;1.47;;;;;;;37.35;21.78;99078.72;5091946;28;39285;-76
2022/07/31 11:30:26;;;;;;;2.07;1.30;;;;;;;37.67;21.43;99077.88;5092244;28;41694;-74
2022/07/31 11:32:54;;;;;;;1.43;1.33;;;;;;;37.87;21.47;99083.53;5074663;28;42103;-78
2022/07/31 11:35:38;;;;;;;1.60;1.43;;;;;;;38.05;21.40;99080.31;5092414;28;42651;-78
2022/07/31 11:38:06;;;;;;;1.90;1.80;;;;;;;38.30;21.05;99081.56;5075229;28;39183;-75
2022/07/31 11:40:33;;;;;;;1.97;1.57;;;;;;;38.53;21.14;99083.88;5075015;28;42754;-75
2022/07/31 11:43:01;;;;;;;1.53;1.43;;;;;;;38.53;21.02;99071.94;5091846;28;42633;-78
2022/07/31 11:45:28;;;;;;;3.07;1.70;;;;;;;38.70;21.04;99075.34;5091457;28;43750;-75
2022/07/31 11:47:56;;;;;;;1.70;1.60;;;;;;;39.04;20.61;99070.16;5074857;28;41027;-74
2022/07/31 11:50:29;;;;;;;2.00;1.70;;;;;;;39.50;20.34;99063.53;5092874;28;41475;-75
2022/07/31 11:53:05;;;;;;;1.70;1.60;;;;;;;40.25;20.11;99055.28;5091595;28;42638;-76
2022/07/31 11:55:44;;;;;;;2.58;1.73;;;;;;;41.44;18.81;99050.34;5090137;28;43069;-79
2022/07/31 11:58:12;;;;;;;1.80;1.70;;;;;;;42.99;17.55;99070.19;5092908;28;40283;-78
2022/07/31 12:00:47;;;;;;;3.35;1.70;;;;;;;42.88;17.22;99065.91;5091782;28;41077;-75
2022/07/31 12:03:16;;;;;;;1.67;1.50;;;;;;;42.55;16.94;99064.13;5092737;28;43670;-77
2022/07/31 12:05:45;;;;;;;1.48;1.38;;;;;;;43.39;16.80;99073.47;5091334;28;42603;-76